sensor_id;sensor_type;location;lat;lon;timestamp;pressure;altitude;pressure_sealevel;temperature;humidity
24390;BME280;12510;56.468;-3.004;2023-03-31T00:00:07;98408.38;;;15.21;100.00
24390;BME280;12510;56.468;-3.004;2023-03-31T00:02:37;98397.59;;;15.16;100.00
24390;BME280;12510;56.468;-3.004;2023-03-31T00:05:07;98400.94;;;15.11;100.00
24390;BME280;12510;56.468;-3.004;2023-03-31T00:07:34;98404.91;;;15.02;100.00
24390;BME280;12510;56.468;-3.004;2023-03-31T00:10:04;98410.56;;;15.05;100.00
24390;BME280;12510;56.468;-3.004;2023-03-31T00:12:31;98395.97;;;14.96;100.00
24390;BME280;12510;56.468;-3.004;2023-03-31T00:14:57;98397.59;;;14.97;100.00
24390;BME280;12510;56.468;-3.004;2023-03-31T00:17:24;98403.78;;;14.91;100.00
24390;BME280;12510;56.468;-3.004;2023-03-31T00:19:50;98401.72;;;14.93;100.00
24390;BME280;12510;56.468;-3.004;2023-03-31T00:22:17;98392.13;;;14.92;100.00
24390;BME280;12510;56.468;-3.004;2023-03-31T00:24:52;98388.31;;;15.06;100.00
24390;BME280;12510;56.468;-3.004;2023-03-31T00:27:19;98392.00;;;14.87;100.00
24390;BME280;12510;56.468;-3.004;2023-03-31T00:29:45;98388.84;;;14.97;100.00
24390;BME280;12510;56.468;-3.004;2023-03-31T00:32:12;98382.78;;;15.08;100.00
24390;BME280;12510;56.468;-3.004;2023-03-31T00:34:39;98380.91;;;14.97;100.00
24390;BME280;12510;56.468;-3.004;2023-03-31T00:37:06;98374.03;;;15.07;100.00
24390;BME280;12510;56.468;-3.004;2023-03-31T00:39:35;98383.25;;;15.05;100.00
24390;BME280;12510;56.468;-3.004;2023-03-31T00:42:03;98381.94;;;15.14;100.00
24390;BME280;12510;56.468;-3.004;2023-03-31T00:44:30;98381.63;;;15.04;100.00
24390;BME280;12510;56.468;-3.004;2023-03-31T00:47:17;98378.03;;;14.98;100.00
24390;BME280;12510;56.468;-3.004;2023-03-31T00:49:54;98377.34;;;15.03;100.00
24390;BME280;12510;56.468;-3.004;2023-03-31T00:52:32;98371.03;;;15.04;100.00
24390;BME280;12510;56.468;-3.004;2023-03-31T00:55:15;98373.66;;;15.04;100.00
24390;BME280;12510;56.468;-3.004;2023-03-31T00:57:45;98368.03;;;15.00;100.00
24390;BME280;12510;56.468;-3.004;2023-03-31T01:00:14;98370.38;;;14.90;100.00
24390;BME280;12510;56.468;-3.004;2023-03-31T01:02:42;98367.72;;;14.90;100.00
24390;BME280;12510;56.468;-3.004;2023-03-31T01:05:23;98363.88;;;14.86;100.00
24390;BME280;12510;56.468;-3.004;2023-03-31T01:07:51;98364.38;;;14.76;100.00
24390;BME280;12510;56.468;-3.004;2023-03-31T01:10:20;98362.03;;;14.86;100.00
24390;BME280;12510;56.468;-3.004;2023-03-31T01:12:51;98365.72;;;14.85;100.00
24390;BME280;12510;56.468;-3.004;2023-03-31T01:15:19;98359.84;;;14.83;100.00
24390;BME280;12510;56.468;-3.004;2023-03-31T01:17:47;98358.94;;;14.71;100.00
24390;BME280;12510;56.468;-3.004;2023-03-31T01:21:01;98347.63;;;15.01;100.00
24390;BME280;12510;56.468;-3.004;2023-03-31T01:26:28;98338.78;;;14.88;100.00
24390;BME280;12510;56.468;-3.004;2023-03-31T01:38:30;98321.50;;;14.86;100.00
24390;BME280;12510;56.468;-3.004;2023-03-31T01:43:40;98311.38;;;14.76;100.00
24390;BME280;12510;56.468;-3.004;2023-03-31T01:46:35;98312.59;;;14.55;100.00
24390;BME280;12510;56.468;-3.004;2023-03-31T01:49:26;98304.41;;;14.82;100.00
24390;BME280;12510;56.468;-3.004;2023-03-31T01:57:47;98294.22;;;14.60;100.00
24390;BME280;12510;56.468;-3.004;2023-03-31T02:00:19;98294.81;;;14.62;100.00
24390;BME280;12510;56.468;-3.004;2023-03-31T02:03:13;98279.50;;;14.83;100.00
24390;BME280;12510;56.468;-3.004;2023-03-31T02:05:50;98278.50;;;14.84;100.00
24390;BME280;12510;56.468;-3.004;2023-03-31T02:08:43;98268.41;;;14.93;100.00
24390;BME280;12510;56.468;-3.004;2023-03-31T02:11:07;98267.59;;;14.92;100.00
24390;BME280;12510;56.468;-3.004;2023-03-31T02:13:35;98268.19;;;14.75;100.00
24390;BME280;12510;56.468;-3.004;2023-03-31T02:16:12;98263.34;;;14.72;100.00
24390;BME280;12510;56.468;-3.004;2023-03-31T02:18:46;98260.47;;;14.74;100.00
24390;BME280;12510;56.468;-3.004;2023-03-31T02:21:15;98258.06;;;14.72;100.00
24390;BME280;12510;56.468;-3.004;2023-03-31T02:23:43;98246.50;;;14.67;100.00
24390;BME280;12510;56.468;-3.004;2023-03-31T02:26:12;98247.59;;;14.78;100.00
24390;BME280;12510;56.468;-3.004;2023-03-31T02:28:39;98242.41;;;14.83;100.00
24390;BME280;12510;56.468;-3.004;2023-03-31T02:33:59;98246.53;;;14.79;100.00
24390;BME280;12510;56.468;-3.004;2023-03-31T02:36:26;98245.06;;;14.83;100.00
24390;BME280;12510;56.468;-3.004;2023-03-31T02:39:05;98248.00;;;14.93;100.00
24390;BME280;12510;56.468;-3.004;2023-03-31T02:41:33;98246.28;;;14.87;100.00
24390;BME280;12510;56.468;-3.004;2023-03-31T02:44:00;98250.66;;;14.93;100.00
24390;BME280;12510;56.468;-3.004;2023-03-31T02:46:27;98246.28;;;14.68;100.00
24390;BME280;12510;56.468;-3.004;2023-03-31T02:48:56;98253.19;;;14.69;100.00
24390;BME280;12510;56.468;-3.004;2023-03-31T02:51:43;98247.00;;;14.75;100.00
24390;BME280;12510;56.468;-3.004;2023-03-31T03:11:00;98230.66;;;14.41;100.00
24390;BME280;12510;56.468;-3.004;2023-03-31T03:13:48;98233.66;;;14.27;100.00
24390;BME280;12510;56.468;-3.004;2023-03-31T03:16:53;98218.38;;;14.47;100.00
24390;BME280;12510;56.468;-3.004;2023-03-31T03:19:23;98226.38;;;14.40;100.00
24390;BME280;12510;56.468;-3.004;2023-03-31T03:21:49;98224.69;;;14.46;100.00
24390;BME280;12510;56.468;-3.004;2023-03-31T03:24:16;98224.75;;;14.58;100.00
24390;BME280;12510;56.468;-3.004;2023-03-31T03:26:44;98223.59;;;14.54;100.00
24390;BME280;12510;56.468;-3.004;2023-03-31T03:29:11;98215.75;;;14.66;100.00
24390;BME280;12510;56.468;-3.004;2023-03-31T03:31:41;98213.72;;;14.61;100.00
24390;BME280;12510;56.468;-3.004;2023-03-31T03:34:08;98210.44;;;14.66;100.00
24390;BME280;12510;56.468;-3.004;2023-03-31T03:36:38;98213.63;;;14.49;100.00
24390;BME280;12510;56.468;-3.004;2023-03-31T03:39:06;98207.25;;;14.57;100.00
24390;BME280;12510;56.468;-3.004;2023-03-31T03:41:33;98212.38;;;14.52;100.00
24390;BME280;12510;56.468;-3.004;2023-03-31T03:44:00;98213.94;;;14.41;100.00
24390;BME280;12510;56.468;-3.004;2023-03-31T03:46:26;98209.75;;;14.52;100.00
24390;BME280;12510;56.468;-3.004;2023-03-31T03:48:53;98202.19;;;14.37;100.00
24390;BME280;12510;56.468;-3.004;2023-03-31T03:51:19;98207.63;;;14.42;100.00
24390;BME280;12510;56.468;-3.004;2023-03-31T03:53:46;98204.91;;;14.49;100.00
24390;BME280;12510;56.468;-3.004;2023-03-31T03:56:12;98198.94;;;14.35;100.00
24390;BME280;12510;56.468;-3.004;2023-03-31T03:58:39;98197.47;;;14.39;100.00
24390;BME280;12510;56.468;-3.004;2023-03-31T04:01:05;98196.44;;;14.21;100.00
24390;BME280;12510;56.468;-3.004;2023-03-31T04:03:32;98185.63;;;14.23;100.00
24390;BME280;12510;56.468;-3.004;2023-03-31T04:05:58;98190.25;;;14.28;100.00
24390;BME280;12510;56.468;-3.004;2023-03-31T04:08:25;98189.09;;;14.42;100.00
24390;BME280;12510;56.468;-3.004;2023-03-31T04:10:52;98195.84;;;14.19;100.00
24390;BME280;12510;56.468;-3.004;2023-03-31T04:13:19;98187.03;;;14.44;100.00
24390;BME280;12510;56.468;-3.004;2023-03-31T04:15:46;98189.72;;;14.56;100.00
24390;BME280;12510;56.468;-3.004;2023-03-31T04:18:12;98182.25;;;14.53;100.00
24390;BME280;12510;56.468;-3.004;2023-03-31T04:20:51;98184.97;;;14.28;100.00
24390;BME280;12510;56.468;-3.004;2023-03-31T04:23:34;98184.16;;;14.46;100.00
24390;BME280;12510;56.468;-3.004;2023-03-31T04:26:08;98182.84;;;14.55;100.00
24390;BME280;12510;56.468;-3.004;2023-03-31T04:28:36;98180.75;;;14.57;100.00
24390;BME280;12510;56.468;-3.004;2023-03-31T04:31:04;98178.72;;;14.40;100.00
24390;BME280;12510;56.468;-3.004;2023-03-31T04:33:34;98175.78;;;14.67;100.00
24390;BME280;12510;56.468;-3.004;2023-03-31T04:36:07;98171.75;;;14.65;100.00
24390;BME280;12510;56.468;-3.004;2023-03-31T04:38:49;98175.09;;;14.72;100.00
24390;BME280;12510;56.468;-3.004;2023-03-31T04:41:20;98173.03;;;14.55;100.00
24390;BME280;12510;56.468;-3.004;2023-03-31T04:43:47;98171.78;;;14.58;100.00
24390;BME280;12510;56.468;-3.004;2023-03-31T04:46:13;98178.22;;;14.69;100.00
24390;BME280;12510;56.468;-3.004;2023-03-31T04:48:40;98168.06;;;14.66;100.00
24390;BME280;12510;56.468;-3.004;2023-03-31T04:51:07;98162.69;;;14.72;100.00
24390;BME280;12510;56.468;-3.004;2023-03-31T04:53:34;98166.66;;;14.63;100.00
24390;BME280;12510;56.468;-3.004;2023-03-31T04:56:01;98163.69;;;14.53;100.00
24390;BME280;12510;56.468;-3.004;2023-03-31T04:58:27;98166.63;;;14.82;100.00
24390;BME280;12510;56.468;-3.004;2023-03-31T05:00:54;98163.84;;;15.07;100.00
24390;BME280;12510;56.468;-3.004;2023-03-31T05:03:20;98165.47;;;15.20;100.00
24390;BME280;12510;56.468;-3.004;2023-03-31T05:05:47;98163.53;;;15.15;100.00
24390;BME280;12510;56.468;-3.004;2023-03-31T05:08:13;98169.44;;;14.87;100.00
24390;BME280;12510;56.468;-3.004;2023-03-31T05:10:39;98166.50;;;15.19;100.00
24390;BME280;12510;56.468;-3.004;2023-03-31T05:13:08;98167.56;;;15.30;100.00
24390;BME280;12510;56.468;-3.004;2023-03-31T05:15:37;98170.31;;;15.11;100.00
24390;BME280;12510;56.468;-3.004;2023-03-31T05:18:05;98184.72;;;13.92;100.00
24390;BME280;12510;56.468;-3.004;2023-03-31T05:20:32;98178.31;;;13.24;100.00
24390;BME280;12510;56.468;-3.004;2023-03-31T05:22:58;98178.66;;;14.66;100.00
24390;BME280;12510;56.468;-3.004;2023-03-31T05:25:25;98173.13;;;13.43;100.00
24390;BME280;12510;56.468;-3.004;2023-03-31T05:27:54;98182.84;;;12.78;100.00
24390;BME280;12510;56.468;-3.004;2023-03-31T05:30:21;98179.31;;;12.91;100.00
24390;BME280;12510;56.468;-3.004;2023-03-31T05:32:51;98176.16;;;14.71;100.00
24390;BME280;12510;56.468;-3.004;2023-03-31T05:35:18;98186.66;;;14.78;100.00
24390;BME280;12510;56.468;-3.004;2023-03-31T05:37:44;98177.28;;;14.94;100.00
24390;BME280;12510;56.468;-3.004;2023-03-31T05:40:11;98184.69;;;14.73;100.00
24390;BME280;12510;56.468;-3.004;2023-03-31T05:42:38;98184.97;;;14.65;100.00
24390;BME280;12510;56.468;-3.004;2023-03-31T05:45:05;98182.31;;;14.46;100.00
24390;BME280;12510;56.468;-3.004;2023-03-31T05:47:31;98186.13;;;14.50;100.00
24390;BME280;12510;56.468;-3.004;2023-03-31T05:49:58;98185.94;;;14.33;100.00
24390;BME280;12510;56.468;-3.004;2023-03-31T05:52:24;98198.72;;;14.18;100.00
24390;BME280;12510;56.468;-3.004;2023-03-31T05:54:51;98197.84;;;14.24;100.00
24390;BME280;12510;56.468;-3.004;2023-03-31T05:57:17;98188.44;;;14.28;100.00
24390;BME280;12510;56.468;-3.004;2023-03-31T05:59:43;98191.66;;;14.30;100.00
24390;BME280;12510;56.468;-3.004;2023-03-31T06:02:12;98201.66;;;14.10;100.00
24390;BME280;12510;56.468;-3.004;2023-03-31T06:04:38;98201.47;;;14.67;100.00
24390;BME280;12510;56.468;-3.004;2023-03-31T06:07:05;98197.44;;;14.64;100.00
24390;BME280;12510;56.468;-3.004;2023-03-31T06:09:31;98203.88;;;14.50;100.00
24390;BME280;12510;56.468;-3.004;2023-03-31T06:11:58;98195.41;;;14.59;100.00
24390;BME280;12510;56.468;-3.004;2023-03-31T06:14:24;98199.97;;;14.52;100.00
24390;BME280;12510;56.468;-3.004;2023-03-31T06:16:52;98215.81;;;14.78;100.00
24390;BME280;12510;56.468;-3.004;2023-03-31T06:19:18;98213.25;;;14.71;100.00
24390;BME280;12510;56.468;-3.004;2023-03-31T06:21:45;98218.72;;;12.93;100.00
24390;BME280;12510;56.468;-3.004;2023-03-31T06:24:11;98217.53;;;14.10;100.00
24390;BME280;12510;56.468;-3.004;2023-03-31T06:26:38;98218.72;;;14.88;100.00
24390;BME280;12510;56.468;-3.004;2023-03-31T06:29:04;98217.53;;;15.02;100.00
24390;BME280;12510;56.468;-3.004;2023-03-31T06:31:30;98213.94;;;14.97;100.00
24390;BME280;12510;56.468;-3.004;2023-03-31T06:33:57;98220.50;;;15.24;100.00
24390;BME280;12510;56.468;-3.004;2023-03-31T06:36:23;98221.53;;;15.23;100.00
24390;BME280;12510;56.468;-3.004;2023-03-31T06:38:50;98217.75;;;15.31;100.00
24390;BME280;12510;56.468;-3.004;2023-03-31T06:41:17;98221.69;;;15.40;100.00
24390;BME280;12510;56.468;-3.004;2023-03-31T06:43:45;98227.03;;;14.17;100.00
24390;BME280;12510;56.468;-3.004;2023-03-31T06:46:12;98230.50;;;13.67;100.00
24390;BME280;12510;56.468;-3.004;2023-03-31T06:48:39;98227.59;;;15.54;100.00
24390;BME280;12510;56.468;-3.004;2023-03-31T06:51:07;98224.16;;;15.78;100.00
24390;BME280;12510;56.468;-3.004;2023-03-31T06:53:34;98231.72;;;15.81;100.00
24390;BME280;12510;56.468;-3.004;2023-03-31T06:56:01;98228.69;;;15.77;100.00
24390;BME280;12510;56.468;-3.004;2023-03-31T06:58:28;98229.63;;;15.83;100.00
24390;BME280;12510;56.468;-3.004;2023-03-31T07:00:54;98225.66;;;15.73;100.00
24390;BME280;12510;56.468;-3.004;2023-03-31T07:03:21;98228.72;;;15.47;100.00
24390;BME280;12510;56.468;-3.004;2023-03-31T07:05:51;98223.75;;;15.81;100.00
24390;BME280;12510;56.468;-3.004;2023-03-31T07:08:19;98227.56;;;15.85;100.00
24390;BME280;12510;56.468;-3.004;2023-03-31T07:10:47;98228.50;;;15.90;100.00
24390;BME280;12510;56.468;-3.004;2023-03-31T07:13:17;98237.25;;;15.91;100.00
24390;BME280;12510;56.468;-3.004;2023-03-31T07:15:46;98237.31;;;15.72;100.00
24390;BME280;12510;56.468;-3.004;2023-03-31T07:18:14;98247.88;;;16.27;100.00
24390;BME280;12510;56.468;-3.004;2023-03-31T07:20:41;98242.50;;;16.62;100.00
24390;BME280;12510;56.468;-3.004;2023-03-31T07:23:08;98247.16;;;16.55;100.00
24390;BME280;12510;56.468;-3.004;2023-03-31T07:25:35;98242.06;;;17.06;100.00
24390;BME280;12510;56.468;-3.004;2023-03-31T07:28:03;98240.03;;;16.44;100.00
24390;BME280;12510;56.468;-3.004;2023-03-31T07:30:30;98250.13;;;15.75;100.00
24390;BME280;12510;56.468;-3.004;2023-03-31T07:32:56;98249.59;;;16.33;100.00
24390;BME280;12510;56.468;-3.004;2023-03-31T07:35:23;98252.94;;;16.04;100.00
24390;BME280;12510;56.468;-3.004;2023-03-31T07:37:50;98254.81;;;16.28;100.00
24390;BME280;12510;56.468;-3.004;2023-03-31T07:40:23;98260.09;;;16.39;100.00
24390;BME280;12510;56.468;-3.004;2023-03-31T07:42:50;98267.25;;;16.27;100.00
24390;BME280;12510;56.468;-3.004;2023-03-31T07:45:19;98261.47;;;16.54;100.00
24390;BME280;12510;56.468;-3.004;2023-03-31T07:47:46;98270.47;;;16.53;100.00
24390;BME280;12510;56.468;-3.004;2023-03-31T07:50:14;98267.34;;;16.68;100.00
24390;BME280;12510;56.468;-3.004;2023-03-31T07:52:43;98267.81;;;16.65;100.00
24390;BME280;12510;56.468;-3.004;2023-03-31T07:55:10;98278.13;;;16.37;100.00
24390;BME280;12510;56.468;-3.004;2023-03-31T07:57:37;98277.66;;;16.40;100.00
24390;BME280;12510;56.468;-3.004;2023-03-31T08:00:05;98282.16;;;16.52;100.00
24390;BME280;12510;56.468;-3.004;2023-03-31T08:02:39;98285.00;;;16.74;100.00
24390;BME280;12510;56.468;-3.004;2023-03-31T08:05:07;98280.41;;;17.51;100.00
24390;BME280;12510;56.468;-3.004;2023-03-31T08:07:35;98285.72;;;16.57;100.00
24390;BME280;12510;56.468;-3.004;2023-03-31T08:10:04;98280.19;;;17.12;100.00
24390;BME280;12510;56.468;-3.004;2023-03-31T08:12:31;98280.06;;;17.18;100.00
24390;BME280;12510;56.468;-3.004;2023-03-31T08:14:58;98290.91;;;17.91;100.00
24390;BME280;12510;56.468;-3.004;2023-03-31T08:17:24;98280.59;;;18.68;100.00
24390;BME280;12510;56.468;-3.004;2023-03-31T08:19:51;98278.72;;;19.35;100.00
24390;BME280;12510;56.468;-3.004;2023-03-31T08:22:17;98266.72;;;19.92;100.00
24390;BME280;12510;56.468;-3.004;2023-03-31T08:24:44;98275.25;;;19.62;100.00
24390;BME280;12510;56.468;-3.004;2023-03-31T08:27:10;98271.38;;;19.48;100.00
24390;BME280;12510;56.468;-3.004;2023-03-31T08:29:36;98281.09;;;18.65;100.00
24390;BME280;12510;56.468;-3.004;2023-03-31T08:32:03;98299.09;;;16.98;100.00
24390;BME280;12510;56.468;-3.004;2023-03-31T08:34:29;98281.81;;;18.38;100.00
24390;BME280;12510;56.468;-3.004;2023-03-31T08:36:56;98286.72;;;17.79;100.00
24390;BME280;12510;56.468;-3.004;2023-03-31T08:39:22;98294.00;;;18.00;100.00
24390;BME280;12510;56.468;-3.004;2023-03-31T08:47:17;98298.66;;;18.27;100.00
24390;BME280;12510;56.468;-3.004;2023-03-31T08:49:56;98309.81;;;17.90;100.00
24390;BME280;12510;56.468;-3.004;2023-03-31T08:52:26;98315.31;;;17.25;100.00
24390;BME280;12510;56.468;-3.004;2023-03-31T08:54:57;98315.50;;;16.71;100.00
24390;BME280;12510;56.468;-3.004;2023-03-31T08:57:30;98313.06;;;17.05;100.00
24390;BME280;12510;56.468;-3.004;2023-03-31T08:59:59;98314.84;;;17.29;100.00
24390;BME280;12510;56.468;-3.004;2023-03-31T09:02:45;98328.00;;;16.59;100.00
24390;BME280;12510;56.468;-3.004;2023-03-31T09:05:41;98321.78;;;16.53;100.00
24390;BME280;12510;56.468;-3.004;2023-03-31T09:08:12;98328.00;;;16.59;100.00
24390;BME280;12510;56.468;-3.004;2023-03-31T09:11:17;98331.25;;;16.61;100.00
24390;BME280;12510;56.468;-3.004;2023-03-31T09:19:46;98340.56;;;16.75;100.00
24390;BME280;12510;56.468;-3.004;2023-03-31T09:22:30;98346.25;;;16.67;100.00
24390;BME280;12510;56.468;-3.004;2023-03-31T09:27:30;98357.53;;;16.03;100.00
24390;BME280;12510;56.468;-3.004;2023-03-31T09:30:15;98364.97;;;16.72;100.00
24390;BME280;12510;56.468;-3.004;2023-03-31T09:32:44;98362.78;;;16.93;100.00
24390;BME280;12510;56.468;-3.004;2023-03-31T09:35:17;98365.19;;;16.47;100.00
24390;BME280;12510;56.468;-3.004;2023-03-31T09:37:44;98369.72;;;16.58;100.00
24390;BME280;12510;56.468;-3.004;2023-03-31T09:40:20;98374.66;;;16.31;100.00
24390;BME280;12510;56.468;-3.004;2023-03-31T09:42:53;98375.81;;;16.35;100.00
24390;BME280;12510;56.468;-3.004;2023-03-31T09:45:22;98380.34;;;16.47;100.00
24390;BME280;12510;56.468;-3.004;2023-03-31T09:47:56;98390.75;;;15.94;100.00
24390;BME280;12510;56.468;-3.004;2023-03-31T09:50:25;98379.63;;;16.28;100.00
24390;BME280;12510;56.468;-3.004;2023-03-31T09:52:55;98393.84;;;16.33;100.00
24390;BME280;12510;56.468;-3.004;2023-03-31T09:55:23;98394.06;;;16.55;100.00
24390;BME280;12510;56.468;-3.004;2023-03-31T09:57:50;98401.59;;;16.47;100.00
24390;BME280;12510;56.468;-3.004;2023-03-31T10:00:19;98399.16;;;15.42;100.00
24390;BME280;12510;56.468;-3.004;2023-03-31T10:02:53;98401.81;;;15.91;100.00
24390;BME280;12510;56.468;-3.004;2023-03-31T10:05:37;98409.44;;;15.99;100.00
24390;BME280;12510;56.468;-3.004;2023-03-31T10:08:23;98415.97;;;16.27;100.00
24390;BME280;12510;56.468;-3.004;2023-03-31T10:13:34;98419.72;;;15.77;100.00
24390;BME280;12510;56.468;-3.004;2023-03-31T10:16:05;98420.75;;;15.27;100.00
24390;BME280;12510;56.468;-3.004;2023-03-31T10:18:37;98428.91;;;15.44;100.00
24390;BME280;12510;56.468;-3.004;2023-03-31T10:21:06;98428.81;;;14.95;100.00
24390;BME280;12510;56.468;-3.004;2023-03-31T10:23:34;98427.94;;;15.01;100.00
24390;BME280;12510;56.468;-3.004;2023-03-31T10:26:01;98434.28;;;15.37;100.00
24390;BME280;12510;56.468;-3.004;2023-03-31T10:28:33;98431.84;;;15.36;100.00
24390;BME280;12510;56.468;-3.004;2023-03-31T10:31:02;98447.84;;;15.29;100.00
24390;BME280;12510;56.468;-3.004;2023-03-31T10:33:31;98447.38;;;15.32;100.00
24390;BME280;12510;56.468;-3.004;2023-03-31T10:36:06;98450.41;;;15.17;100.00
24390;BME280;12510;56.468;-3.004;2023-03-31T10:38:41;98458.34;;;15.17;100.00
24390;BME280;12510;56.468;-3.004;2023-03-31T10:41:10;98455.16;;;14.90;100.00
24390;BME280;12510;56.468;-3.004;2023-03-31T10:43:43;98471.84;;;14.90;100.00
24390;BME280;12510;56.468;-3.004;2023-03-31T10:46:13;98473.97;;;15.07;100.00
24390;BME280;12510;56.468;-3.004;2023-03-31T10:48:41;98483.28;;;14.91;100.00
24390;BME280;12510;56.468;-3.004;2023-03-31T10:53:46;98484.19;;;14.46;100.00
24390;BME280;12510;56.468;-3.004;2023-03-31T10:56:38;98486.91;;;14.71;100.00
24390;BME280;12510;56.468;-3.004;2023-03-31T11:07:37;98505.69;;;14.31;100.00
24390;BME280;12510;56.468;-3.004;2023-03-31T11:10:32;98507.00;;;14.15;100.00
24390;BME280;12510;56.468;-3.004;2023-03-31T11:29:59;98529.13;;;15.17;100.00
24390;BME280;12510;56.468;-3.004;2023-03-31T11:32:29;98535.56;;;14.77;100.00
24390;BME280;12510;56.468;-3.004;2023-03-31T11:35:04;98541.13;;;14.30;100.00
24390;BME280;12510;56.468;-3.004;2023-03-31T11:40:20;98547.44;;;14.29;100.00
24390;BME280;12510;56.468;-3.004;2023-03-31T11:45:51;98554.78;;;14.27;100.00
24390;BME280;12510;56.468;-3.004;2023-03-31T11:50:54;98560.28;;;14.25;100.00
24390;BME280;12510;56.468;-3.004;2023-03-31T11:53:31;98567.59;;;14.30;100.00
24390;BME280;12510;56.468;-3.004;2023-03-31T11:56:00;98563.63;;;14.46;100.00
24390;BME280;12510;56.468;-3.004;2023-03-31T11:58:34;98565.53;;;14.78;100.00
24390;BME280;12510;56.468;-3.004;2023-03-31T12:04:04;98577.53;;;14.80;100.00
24390;BME280;12510;56.468;-3.004;2023-03-31T12:06:36;98580.75;;;14.44;100.00
24390;BME280;12510;56.468;-3.004;2023-03-31T12:11:49;98586.81;;;14.12;100.00
24390;BME280;12510;56.468;-3.004;2023-03-31T12:14:37;98586.81;;;14.19;100.00
24390;BME280;12510;56.468;-3.004;2023-03-31T12:17:14;98591.25;;;14.18;100.00
24390;BME280;12510;56.468;-3.004;2023-03-31T12:19:50;98602.72;;;14.05;100.00
24390;BME280;12510;56.468;-3.004;2023-03-31T12:22:25;98597.78;;;14.16;100.00
24390;BME280;12510;56.468;-3.004;2023-03-31T12:24:54;98603.66;;;14.24;100.00
24390;BME280;12510;56.468;-3.004;2023-03-31T12:30:16;98605.97;;;14.07;100.00
24390;BME280;12510;56.468;-3.004;2023-03-31T12:55:33;98632.69;;;13.86;100.00
24390;BME280;12510;56.468;-3.004;2023-03-31T13:06:03;98643.50;;;13.78;100.00
24390;BME280;12510;56.468;-3.004;2023-03-31T13:11:15;98650.53;;;14.24;100.00
24390;BME280;12510;56.468;-3.004;2023-03-31T13:14:21;98656.53;;;14.45;100.00
24390;BME280;12510;56.468;-3.004;2023-03-31T13:16:48;98657.22;;;14.33;100.00
24390;BME280;12510;56.468;-3.004;2023-03-31T13:19:32;98661.19;;;13.90;100.00
24390;BME280;12510;56.468;-3.004;2023-03-31T13:22:03;98658.50;;;14.04;100.00
24390;BME280;12510;56.468;-3.004;2023-03-31T13:24:31;98651.97;;;14.20;100.00
24390;BME280;12510;56.468;-3.004;2023-03-31T13:27:32;98668.84;;;14.19;100.00
24390;BME280;12510;56.468;-3.004;2023-03-31T13:29:59;98671.91;;;14.09;100.00
24390;BME280;12510;56.468;-3.004;2023-03-31T13:32:26;98675.22;;;13.91;100.00
24390;BME280;12510;56.468;-3.004;2023-03-31T13:35:14;98680.28;;;13.99;100.00
24390;BME280;12510;56.468;-3.004;2023-03-31T13:37:58;98680.47;;;14.18;100.00
24390;BME280;12510;56.468;-3.004;2023-03-31T13:40:59;98681.03;;;14.33;100.00
24390;BME280;12510;56.468;-3.004;2023-03-31T13:52:02;98701.69;;;13.71;100.00
24390;BME280;12510;56.468;-3.004;2023-03-31T14:05:29;98704.94;;;13.93;100.00
24390;BME280;12510;56.468;-3.004;2023-03-31T14:08:13;98720.16;;;14.18;100.00
24390;BME280;12510;56.468;-3.004;2023-03-31T14:10:42;98713.06;;;14.05;100.00
24390;BME280;12510;56.468;-3.004;2023-03-31T14:13:14;98718.34;;;14.05;100.00
24390;BME280;12510;56.468;-3.004;2023-03-31T14:15:46;98715.22;;;14.41;100.00
24390;BME280;12510;56.468;-3.004;2023-03-31T14:18:33;98716.72;;;14.24;100.00
24390;BME280;12510;56.468;-3.004;2023-03-31T14:23:43;98722.16;;;14.29;100.00
24390;BME280;12510;56.468;-3.004;2023-03-31T14:26:19;98726.81;;;14.54;100.00
24390;BME280;12510;56.468;-3.004;2023-03-31T14:29:16;98732.91;;;14.48;100.00
24390;BME280;12510;56.468;-3.004;2023-03-31T14:32:02;98728.41;;;14.68;100.00
24390;BME280;12510;56.468;-3.004;2023-03-31T14:37:04;98746.81;;;14.30;100.00
24390;BME280;12510;56.468;-3.004;2023-03-31T14:39:42;98747.88;;;13.95;100.00
24390;BME280;12510;56.468;-3.004;2023-03-31T14:42:13;98756.59;;;14.22;100.00
24390;BME280;12510;56.468;-3.004;2023-03-31T14:44:41;98745.63;;;14.25;100.00
24390;BME280;12510;56.468;-3.004;2023-03-31T14:47:28;98757.44;;;14.10;100.00
24390;BME280;12510;56.468;-3.004;2023-03-31T14:52:29;98759.09;;;14.11;100.00
24390;BME280;12510;56.468;-3.004;2023-03-31T14:54:58;98761.53;;;13.72;100.00
24390;BME280;12510;56.468;-3.004;2023-03-31T14:57:32;98770.06;;;13.94;100.00
24390;BME280;12510;56.468;-3.004;2023-03-31T15:00:03;98781.25;;;13.56;100.00
24390;BME280;12510;56.468;-3.004;2023-03-31T15:02:35;98780.78;;;13.39;100.00
24390;BME280;12510;56.468;-3.004;2023-03-31T15:05:05;98781.25;;;13.63;100.00
24390;BME280;12510;56.468;-3.004;2023-03-31T15:07:32;98773.53;;;13.81;100.00
24390;BME280;12510;56.468;-3.004;2023-03-31T15:10:00;98781.06;;;13.84;100.00
24390;BME280;12510;56.468;-3.004;2023-03-31T15:12:28;98783.28;;;14.07;100.00
24390;BME280;12510;56.468;-3.004;2023-03-31T15:15:03;98789.22;;;13.83;100.00
24390;BME280;12510;56.468;-3.004;2023-03-31T15:17:36;98794.91;;;13.93;100.00
24390;BME280;12510;56.468;-3.004;2023-03-31T15:20:41;98794.69;;;14.28;100.00
24390;BME280;12510;56.468;-3.004;2023-03-31T15:23:25;98799.78;;;14.23;100.00
24390;BME280;12510;56.468;-3.004;2023-03-31T15:26:04;98809.13;;;14.39;100.00
24390;BME280;12510;56.468;-3.004;2023-03-31T15:28:41;98813.84;;;14.10;100.00
24390;BME280;12510;56.468;-3.004;2023-03-31T15:31:13;98806.31;;;13.87;100.00
24390;BME280;12510;56.468;-3.004;2023-03-31T15:33:39;98821.53;;;13.78;100.00
24390;BME280;12510;56.468;-3.004;2023-03-31T15:36:07;98828.72;;;13.29;100.00
24390;BME280;12510;56.468;-3.004;2023-03-31T15:38:36;98821.72;;;13.01;100.00
24390;BME280;12510;56.468;-3.004;2023-03-31T15:41:10;98841.25;;;12.72;100.00
24390;BME280;12510;56.468;-3.004;2023-03-31T15:43:45;98843.84;;;13.00;100.00